sensor_id;sensor_type;location;lat;lon;timestamp;P1;durP1;ratioP1;P2;durP2;ratioP2
29984;SDS011;17387;42.690;23.328;2023-04-19T00:01:07;5.13;;;2.45;;
29984;SDS011;17387;42.690;23.328;2023-04-19T00:03:32;2.90;;;2.30;;
29984;SDS011;17387;42.690;23.328;2023-04-19T00:05:57;3.67;;;2.28;;
29984;SDS011;17387;42.690;23.328;2023-04-19T00:08:23;4.97;;;2.88;;
29984;SDS011;17387;42.690;23.328;2023-04-19T00:10:49;4.68;;;3.10;;
29984;SDS011;17387;42.690;23.328;2023-04-19T00:13:14;5.57;;;3.00;;
29984;SDS011;17387;42.690;23.328;2023-04-19T00:15:39;5.32;;;2.67;;
29984;SDS011;17387;42.690;23.328;2023-04-19T00:18:04;5.07;;;2.70;;
29984;SDS011;17387;42.690;23.328;2023-04-19T00:20:30;3.15;;;2.22;;
29984;SDS011;17387;42.690;23.328;2023-04-19T00:22:55;2.47;;;1.80;;
29984;SDS011;17387;42.690;23.328;2023-04-19T00:25:22;1.20;;;1.10;;
29984;SDS011;17387;42.690;23.328;2023-04-19T00:27:48;1.65;;;1.20;;
29984;SDS011;17387;42.690;23.328;2023-04-19T00:30:13;1.65;;;1.00;;
29984;SDS011;17387;42.690;23.328;2023-04-19T00:32:38;2.50;;;1.30;;
29984;SDS011;17387;42.690;23.328;2023-04-19T00:35:03;3.28;;;1.50;;
29984;SDS011;17387;42.690;23.328;2023-04-19T00:37:29;1.77;;;1.23;;
29984;SDS011;17387;42.690;23.328;2023-04-19T00:39:54;2.47;;;1.65;;
29984;SDS011;17387;42.690;23.328;2023-04-19T00:42:19;3.20;;;2.15;;
29984;SDS011;17387;42.690;23.328;2023-04-19T00:44:45;3.38;;;2.08;;
29984;SDS011;17387;42.690;23.328;2023-04-19T00:47:10;3.95;;;2.20;;
29984;SDS011;17387;42.690;23.328;2023-04-19T00:49:36;2.90;;;2.03;;
29984;SDS011;17387;42.690;23.328;2023-04-19T00:52:01;3.40;;;2.08;;
29984;SDS011;17387;42.690;23.328;2023-04-19T00:54:26;2.95;;;2.10;;
29984;SDS011;17387;42.690;23.328;2023-04-19T00:56:51;2.30;;;1.75;;
29984;SDS011;17387;42.690;23.328;2023-04-19T00:59:17;1.80;;;1.25;;
29984;SDS011;17387;42.690;23.328;2023-04-19T01:01:42;1.95;;;1.38;;
29984;SDS011;17387;42.690;23.328;2023-04-19T01:04:07;2.60;;;1.60;;
29984;SDS011;17387;42.690;23.328;2023-04-19T01:06:33;3.13;;;1.90;;
29984;SDS011;17387;42.690;23.328;2023-04-19T01:08:59;3.20;;;1.70;;
29984;SDS011;17387;42.690;23.328;2023-04-19T01:11:25;3.40;;;1.85;;
29984;SDS011;17387;42.690;23.328;2023-04-19T01:13:50;2.85;;;1.98;;
29984;SDS011;17387;42.690;23.328;2023-04-19T01:16:16;4.35;;;2.38;;
29984;SDS011;17387;42.690;23.328;2023-04-19T01:18:41;3.92;;;2.55;;
29984;SDS011;17387;42.690;23.328;2023-04-19T01:21:07;4.68;;;2.80;;
29984;SDS011;17387;42.690;23.328;2023-04-19T01:23:33;5.97;;;2.90;;
29984;SDS011;17387;42.690;23.328;2023-04-19T01:25:58;5.40;;;2.60;;
29984;SDS011;17387;42.690;23.328;2023-04-19T01:28:25;4.07;;;2.90;;
29984;SDS011;17387;42.690;23.328;2023-04-19T01:30:50;4.20;;;3.05;;
29984;SDS011;17387;42.690;23.328;2023-04-19T01:33:17;6.18;;;3.50;;
29984;SDS011;17387;42.690;23.328;2023-04-19T01:35:42;4.55;;;3.25;;
29984;SDS011;17387;42.690;23.328;2023-04-19T01:38:08;6.17;;;3.53;;
29984;SDS011;17387;42.690;23.328;2023-04-19T01:40:33;5.22;;;3.45;;
29984;SDS011;17387;42.690;23.328;2023-04-19T01:42:58;5.30;;;3.45;;
29984;SDS011;17387;42.690;23.328;2023-04-19T01:45:23;4.50;;;3.15;;
29984;SDS011;17387;42.690;23.328;2023-04-19T01:47:49;6.28;;;3.50;;
29984;SDS011;17387;42.690;23.328;2023-04-19T01:50:15;4.40;;;2.88;;
29984;SDS011;17387;42.690;23.328;2023-04-19T01:52:40;4.95;;;2.88;;
29984;SDS011;17387;42.690;23.328;2023-04-19T01:55:05;3.78;;;2.92;;
29984;SDS011;17387;42.690;23.328;2023-04-19T01:57:30;5.18;;;2.88;;
29984;SDS011;17387;42.690;23.328;2023-04-19T01:59:56;4.95;;;2.92;;
29984;SDS011;17387;42.690;23.328;2023-04-19T02:02:21;4.22;;;2.80;;
29984;SDS011;17387;42.690;23.328;2023-04-19T02:04:46;5.18;;;2.83;;
29984;SDS011;17387;42.690;23.328;2023-04-19T02:07:11;3.72;;;3.22;;
29984;SDS011;17387;42.690;23.328;2023-04-19T02:09:37;3.92;;;2.92;;
29984;SDS011;17387;42.690;23.328;2023-04-19T02:12:02;4.53;;;3.20;;
29984;SDS011;17387;42.690;23.328;2023-04-19T02:14:28;4.82;;;3.10;;
29984;SDS011;17387;42.690;23.328;2023-04-19T02:16:53;7.30;;;2.80;;
29984;SDS011;17387;42.690;23.328;2023-04-19T02:19:18;3.22;;;2.80;;
29984;SDS011;17387;42.690;23.328;2023-04-19T02:21:43;5.40;;;3.78;;
29984;SDS011;17387;42.690;23.328;2023-04-19T02:24:09;7.18;;;3.40;;
29984;SDS011;17387;42.690;23.328;2023-04-19T02:26:34;5.60;;;3.90;;
29984;SDS011;17387;42.690;23.328;2023-04-19T02:28:59;6.88;;;3.70;;
29984;SDS011;17387;42.690;23.328;2023-04-19T02:31:25;5.22;;;3.95;;
29984;SDS011;17387;42.690;23.328;2023-04-19T02:33:50;6.03;;;3.60;;
29984;SDS011;17387;42.690;23.328;2023-04-19T02:36:15;5.57;;;4.07;;
29984;SDS011;17387;42.690;23.328;2023-04-19T02:38:41;6.32;;;4.10;;
29984;SDS011;17387;42.690;23.328;2023-04-19T02:41:06;5.90;;;4.00;;
29984;SDS011;17387;42.690;23.328;2023-04-19T02:43:31;8.68;;;4.18;;
29984;SDS011;17387;42.690;23.328;2023-04-19T02:45:56;5.55;;;3.85;;
29984;SDS011;17387;42.690;23.328;2023-04-19T02:48:22;6.70;;;4.40;;
29984;SDS011;17387;42.690;23.328;2023-04-19T02:50:47;6.35;;;4.50;;
29984;SDS011;17387;42.690;23.328;2023-04-19T02:53:12;6.03;;;4.40;;
29984;SDS011;17387;42.690;23.328;2023-04-19T02:55:37;7.13;;;4.32;;
29984;SDS011;17387;42.690;23.328;2023-04-19T02:58:03;7.80;;;4.57;;
29984;SDS011;17387;42.690;23.328;2023-04-19T03:00:28;5.57;;;4.15;;
29984;SDS011;17387;42.690;23.328;2023-04-19T03:02:54;8.15;;;4.82;;
29984;SDS011;17387;42.690;23.328;2023-04-19T03:05:20;5.93;;;4.75;;
29984;SDS011;17387;42.690;23.328;2023-04-19T03:07:45;6.55;;;4.63;;
29984;SDS011;17387;42.690;23.328;2023-04-19T03:10:11;7.30;;;4.80;;
29984;SDS011;17387;42.690;23.328;2023-04-19T03:12:36;8.27;;;4.90;;
29984;SDS011;17387;42.690;23.328;2023-04-19T03:15:01;7.68;;;5.00;;
29984;SDS011;17387;42.690;23.328;2023-04-19T03:17:27;6.97;;;4.95;;
29984;SDS011;17387;42.690;23.328;2023-04-19T03:19:52;7.55;;;5.07;;
29984;SDS011;17387;42.690;23.328;2023-04-19T03:22:17;7.82;;;5.03;;
29984;SDS011;17387;42.690;23.328;2023-04-19T03:24:43;8.82;;;5.03;;
29984;SDS011;17387;42.690;23.328;2023-04-19T03:27:08;7.40;;;5.50;;
29984;SDS011;17387;42.690;23.328;2023-04-19T03:29:33;7.63;;;5.15;;
29984;SDS011;17387;42.690;23.328;2023-04-19T03:31:59;8.07;;;5.43;;
29984;SDS011;17387;42.690;23.328;2023-04-19T03:34:24;7.45;;;5.22;;
29984;SDS011;17387;42.690;23.328;2023-04-19T03:36:52;8.45;;;5.28;;
29984;SDS011;17387;42.690;23.328;2023-04-19T03:39:17;6.88;;;5.13;;
29984;SDS011;17387;42.690;23.328;2023-04-19T03:41:42;7.03;;;5.60;;
29984;SDS011;17387;42.690;23.328;2023-04-19T03:44:08;6.07;;;5.35;;
29984;SDS011;17387;42.690;23.328;2023-04-19T03:46:33;6.93;;;5.50;;
29984;SDS011;17387;42.690;23.328;2023-04-19T03:48:58;6.57;;;5.38;;
29984;SDS011;17387;42.690;23.328;2023-04-19T03:51:23;7.05;;;5.28;;
29984;SDS011;17387;42.690;23.328;2023-04-19T03:53:49;7.47;;;5.43;;
29984;SDS011;17387;42.690;23.328;2023-04-19T03:56:14;6.50;;;5.13;;
29984;SDS011;17387;42.690;23.328;2023-04-19T03:58:39;9.18;;;5.45;;
29984;SDS011;17387;42.690;23.328;2023-04-19T04:01:04;7.63;;;5.80;;
29984;SDS011;17387;42.690;23.328;2023-04-19T04:03:32;8.88;;;5.65;;
29984;SDS011;17387;42.690;23.328;2023-04-19T04:05:57;8.93;;;5.80;;
29984;SDS011;17387;42.690;23.328;2023-04-19T04:08:23;8.98;;;5.97;;
29984;SDS011;17387;42.690;23.328;2023-04-19T04:10:48;13.32;;;5.70;;
29984;SDS011;17387;42.690;23.328;2023-04-19T04:13:13;9.00;;;5.20;;
29984;SDS011;17387;42.690;23.328;2023-04-19T04:15:38;8.38;;;5.18;;
29984;SDS011;17387;42.690;23.328;2023-04-19T04:18:04;7.20;;;5.05;;
29984;SDS011;17387;42.690;23.328;2023-04-19T04:20:29;6.63;;;5.22;;
29984;SDS011;17387;42.690;23.328;2023-04-19T04:22:54;9.18;;;5.88;;
29984;SDS011;17387;42.690;23.328;2023-04-19T04:25:20;6.72;;;5.28;;
29984;SDS011;17387;42.690;23.328;2023-04-19T04:27:45;8.43;;;5.35;;
29984;SDS011;17387;42.690;23.328;2023-04-19T04:30:11;8.63;;;5.57;;
29984;SDS011;17387;42.690;23.328;2023-04-19T04:32:37;7.95;;;5.38;;
29984;SDS011;17387;42.690;23.328;2023-04-19T04:35:05;8.00;;;5.90;;
29984;SDS011;17387;42.690;23.328;2023-04-19T04:37:31;8.57;;;6.40;;
29984;SDS011;17387;42.690;23.328;2023-04-19T04:39:58;7.95;;;5.68;;
29984;SDS011;17387;42.690;23.328;2023-04-19T04:42:23;7.03;;;5.80;;
29984;SDS011;17387;42.690;23.328;2023-04-19T04:44:48;7.75;;;5.80;;
29984;SDS011;17387;42.690;23.328;2023-04-19T04:47:16;9.23;;;6.20;;
29984;SDS011;17387;42.690;23.328;2023-04-19T04:49:41;8.07;;;5.88;;
29984;SDS011;17387;42.690;23.328;2023-04-19T04:52:07;8.63;;;6.03;;
29984;SDS011;17387;42.690;23.328;2023-04-19T04:54:33;7.88;;;6.10;;
29984;SDS011;17387;42.690;23.328;2023-04-19T04:56:58;8.35;;;5.85;;
29984;SDS011;17387;42.690;23.328;2023-04-19T04:59:23;8.55;;;6.18;;
29984;SDS011;17387;42.690;23.328;2023-04-19T05:01:48;7.82;;;5.93;;
29984;SDS011;17387;42.690;23.328;2023-04-19T05:04:14;7.03;;;5.55;;
29984;SDS011;17387;42.690;23.328;2023-04-19T05:06:39;8.43;;;5.93;;
29984;SDS011;17387;42.690;23.328;2023-04-19T05:09:05;9.52;;;6.15;;
29984;SDS011;17387;42.690;23.328;2023-04-19T05:11:30;10.88;;;6.35;;
29984;SDS011;17387;42.690;23.328;2023-04-19T05:13:56;9.60;;;6.13;;
29984;SDS011;17387;42.690;23.328;2023-04-19T05:16:21;8.65;;;6.07;;
29984;SDS011;17387;42.690;23.328;2023-04-19T05:18:47;7.50;;;5.88;;
29984;SDS011;17387;42.690;23.328;2023-04-19T05:21:12;10.07;;;6.40;;
29984;SDS011;17387;42.690;23.328;2023-04-19T05:23:37;9.57;;;6.53;;
29984;SDS011;17387;42.690;23.328;2023-04-19T05:26:03;7.65;;;6.15;;
29984;SDS011;17387;42.690;23.328;2023-04-19T05:28:28;9.95;;;6.78;;
29984;SDS011;17387;42.690;23.328;2023-04-19T05:30:53;8.98;;;6.20;;
29984;SDS011;17387;42.690;23.328;2023-04-19T05:33:19;11.80;;;6.68;;
29984;SDS011;17387;42.690;23.328;2023-04-19T05:35:44;10.38;;;6.43;;
29984;SDS011;17387;42.690;23.328;2023-04-19T05:38:09;10.45;;;6.85;;
29984;SDS011;17387;42.690;23.328;2023-04-19T05:40:34;8.07;;;6.63;;
29984;SDS011;17387;42.690;23.328;2023-04-19T05:43:00;8.80;;;6.57;;
29984;SDS011;17387;42.690;23.328;2023-04-19T05:45:25;9.35;;;6.10;;
29984;SDS011;17387;42.690;23.328;2023-04-19T05:47:50;7.53;;;5.88;;
29984;SDS011;17387;42.690;23.328;2023-04-19T05:50:16;8.02;;;6.38;;
29984;SDS011;17387;42.690;23.328;2023-04-19T05:52:44;10.27;;;6.55;;
29984;SDS011;17387;42.690;23.328;2023-04-19T05:55:09;7.25;;;5.53;;
29984;SDS011;17387;42.690;23.328;2023-04-19T05:57:34;9.52;;;6.22;;
29984;SDS011;17387;42.690;23.328;2023-04-19T06:00:00;11.23;;;6.10;;
29984;SDS011;17387;42.690;23.328;2023-04-19T06:02:25;8.00;;;5.65;;
29984;SDS011;17387;42.690;23.328;2023-04-19T06:04:51;9.52;;;5.90;;
29984;SDS011;17387;42.690;23.328;2023-04-19T06:07:16;8.07;;;6.30;;
29984;SDS011;17387;42.690;23.328;2023-04-19T06:09:41;8.32;;;5.40;;
29984;SDS011;17387;42.690;23.328;2023-04-19T06:12:07;6.85;;;5.50;;
29984;SDS011;17387;42.690;23.328;2023-04-19T06:14:32;10.85;;;6.20;;
29984;SDS011;17387;42.690;23.328;2023-04-19T06:16:57;9.23;;;5.90;;
29984;SDS011;17387;42.690;23.328;2023-04-19T06:19:22;8.15;;;5.70;;
29984;SDS011;17387;42.690;23.328;2023-04-19T06:21:48;7.70;;;5.68;;
29984;SDS011;17387;42.690;23.328;2023-04-19T06:24:13;6.90;;;5.43;;
29984;SDS011;17387;42.690;23.328;2023-04-19T06:26:39;7.43;;;5.75;;
29984;SDS011;17387;42.690;23.328;2023-04-19T06:29:04;9.25;;;5.80;;
29984;SDS011;17387;42.690;23.328;2023-04-19T06:31:30;7.93;;;5.47;;
29984;SDS011;17387;42.690;23.328;2023-04-19T06:33:55;9.48;;;6.47;;
29984;SDS011;17387;42.690;23.328;2023-04-19T06:36:21;8.20;;;6.25;;
29984;SDS011;17387;42.690;23.328;2023-04-19T06:38:46;7.70;;;5.78;;
29984;SDS011;17387;42.690;23.328;2023-04-19T06:41:11;7.72;;;5.50;;
29984;SDS011;17387;42.690;23.328;2023-04-19T06:43:37;8.43;;;5.82;;
29984;SDS011;17387;42.690;23.328;2023-04-19T06:46:04;8.07;;;5.90;;
29984;SDS011;17387;42.690;23.328;2023-04-19T06:48:30;7.28;;;5.15;;
29984;SDS011;17387;42.690;23.328;2023-04-19T06:50:55;7.00;;;5.43;;
29984;SDS011;17387;42.690;23.328;2023-04-19T06:53:21;8.02;;;5.85;;
29984;SDS011;17387;42.690;23.328;2023-04-19T06:55:46;9.27;;;6.15;;
29984;SDS011;17387;42.690;23.328;2023-04-19T06:58:11;9.18;;;5.85;;
29984;SDS011;17387;42.690;23.328;2023-04-19T07:00:37;8.90;;;5.95;;
29984;SDS011;17387;42.690;23.328;2023-04-19T07:03:02;8.63;;;5.45;;
29984;SDS011;17387;42.690;23.328;2023-04-19T07:05:28;10.73;;;6.43;;
29984;SDS011;17387;42.690;23.328;2023-04-19T07:07:54;7.95;;;5.38;;
29984;SDS011;17387;42.690;23.328;2023-04-19T07:10:19;7.88;;;6.00;;
29984;SDS011;17387;42.690;23.328;2023-04-19T07:12:44;6.43;;;5.10;;
29984;SDS011;17387;42.690;23.328;2023-04-19T07:15:10;8.20;;;5.80;;
29984;SDS011;17387;42.690;23.328;2023-04-19T07:17:35;7.57;;;5.00;;
29984;SDS011;17387;42.690;23.328;2023-04-19T07:20:01;10.95;;;5.45;;
29984;SDS011;17387;42.690;23.328;2023-04-19T07:22:28;9.38;;;5.18;;
29984;SDS011;17387;42.690;23.328;2023-04-19T07:24:53;6.57;;;5.03;;
29984;SDS011;17387;42.690;23.328;2023-04-19T07:27:19;6.60;;;4.72;;
29984;SDS011;17387;42.690;23.328;2023-04-19T07:29:44;8.30;;;4.47;;
29984;SDS011;17387;42.690;23.328;2023-04-19T07:32:09;6.35;;;5.00;;
29984;SDS011;17387;42.690;23.328;2023-04-19T07:34:38;6.35;;;4.40;;
29984;SDS011;17387;42.690;23.328;2023-04-19T07:37:05;8.02;;;4.78;;
29984;SDS011;17387;42.690;23.328;2023-04-19T07:39:30;6.72;;;5.00;;
29984;SDS011;17387;42.690;23.328;2023-04-19T07:41:55;8.15;;;5.35;;
29984;SDS011;17387;42.690;23.328;2023-04-19T07:44:21;7.38;;;5.30;;
29984;SDS011;17387;42.690;23.328;2023-04-19T07:46:46;9.60;;;4.90;;
29984;SDS011;17387;42.690;23.328;2023-04-19T07:49:12;9.45;;;6.10;;
29984;SDS011;17387;42.690;23.328;2023-04-19T07:51:37;7.70;;;4.70;;
29984;SDS011;17387;42.690;23.328;2023-04-19T07:54:02;7.03;;;4.63;;
29984;SDS011;17387;42.690;23.328;2023-04-19T07:56:28;8.43;;;4.75;;
29984;SDS011;17387;42.690;23.328;2023-04-19T07:58:53;9.23;;;4.90;;
29984;SDS011;17387;42.690;23.328;2023-04-19T08:01:18;6.05;;;4.40;;
29984;SDS011;17387;42.690;23.328;2023-04-19T08:03:44;8.55;;;5.30;;
29984;SDS011;17387;42.690;23.328;2023-04-19T08:06:13;8.95;;;4.95;;
29984;SDS011;17387;42.690;23.328;2023-04-19T08:08:38;5.88;;;4.18;;
29984;SDS011;17387;42.690;23.328;2023-04-19T08:11:03;9.32;;;4.50;;
29984;SDS011;17387;42.690;23.328;2023-04-19T08:13:29;6.35;;;4.43;;
29984;SDS011;17387;42.690;23.328;2023-04-19T08:15:55;6.43;;;4.57;;
29984;SDS011;17387;42.690;23.328;2023-04-19T08:18:20;6.00;;;4.40;;
29984;SDS011;17387;42.690;23.328;2023-04-19T08:20:46;7.88;;;4.03;;
29984;SDS011;17387;42.690;23.328;2023-04-19T08:23:11;8.00;;;4.35;;
29984;SDS011;17387;42.690;23.328;2023-04-19T08:25:37;5.97;;;4.00;;
29984;SDS011;17387;42.690;23.328;2023-04-19T08:28:02;7.28;;;4.70;;
29984;SDS011;17387;42.690;23.328;2023-04-19T08:30:27;5.13;;;4.00;;
29984;SDS011;17387;42.690;23.328;2023-04-19T08:32:53;5.22;;;3.70;;
29984;SDS011;17387;42.690;23.328;2023-04-19T08:35:19;7.28;;;4.57;;
29984;SDS011;17387;42.690;23.328;2023-04-19T08:37:44;7.10;;;4.80;;
29984;SDS011;17387;42.690;23.328;2023-04-19T08:40:09;7.43;;;4.93;;
29984;SDS011;17387;42.690;23.328;2023-04-19T08:42:35;6.85;;;4.15;;
29984;SDS011;17387;42.690;23.328;2023-04-19T08:45:00;4.10;;;3.35;;
29984;SDS011;17387;42.690;23.328;2023-04-19T08:47:33;7.28;;;4.07;;
29984;SDS011;17387;42.690;23.328;2023-04-19T08:50:03;7.63;;;4.38;;
29984;SDS011;17387;42.690;23.328;2023-04-19T08:52:28;5.57;;;3.75;;
29984;SDS011;17387;42.690;23.328;2023-04-19T08:54:54;4.82;;;3.83;;
29984;SDS011;17387;42.690;23.328;2023-04-19T08:57:20;6.68;;;3.60;;
29984;SDS011;17387;42.690;23.328;2023-04-19T08:59:45;5.53;;;3.88;;
29984;SDS011;17387;42.690;23.328;2023-04-19T09:02:14;5.53;;;4.05;;
29984;SDS011;17387;42.690;23.328;2023-04-19T09:04:40;6.00;;;3.72;;
29984;SDS011;17387;42.690;23.328;2023-04-19T09:07:05;4.90;;;3.57;;
29984;SDS011;17387;42.690;23.328;2023-04-19T09:09:32;4.72;;;3.60;;
29984;SDS011;17387;42.690;23.328;2023-04-19T09:11:57;4.85;;;3.55;;
29984;SDS011;17387;42.690;23.328;2023-04-19T09:14:24;5.43;;;3.05;;
29984;SDS011;17387;42.690;23.328;2023-04-19T09:16:49;4.35;;;3.30;;
29984;SDS011;17387;42.690;23.328;2023-04-19T09:19:16;4.45;;;2.60;;
29984;SDS011;17387;42.690;23.328;2023-04-19T09:21:41;3.65;;;2.78;;
29984;SDS011;17387;42.690;23.328;2023-04-19T09:24:07;3.92;;;2.85;;
29984;SDS011;17387;42.690;23.328;2023-04-19T09:26:33;3.53;;;3.05;;
29984;SDS011;17387;42.690;23.328;2023-04-19T09:28:59;7.68;;;3.10;;
29984;SDS011;17387;42.690;23.328;2023-04-19T09:31:26;8.07;;;3.47;;
29984;SDS011;17387;42.690;23.328;2023-04-19T09:33:52;4.72;;;2.80;;
29984;SDS011;17387;42.690;23.328;2023-04-19T09:36:31;4.90;;;3.03;;
29984;SDS011;17387;42.690;23.328;2023-04-19T09:38:57;5.30;;;3.42;;
29984;SDS011;17387;42.690;23.328;2023-04-19T09:41:23;5.53;;;3.88;;
29984;SDS011;17387;42.690;23.328;2023-04-19T09:43:48;3.97;;;3.10;;
29984;SDS011;17387;42.690;23.328;2023-04-19T09:46:33;10.85;;;3.20;;
29984;SDS011;17387;42.690;23.328;2023-04-19T09:51:44;5.85;;;3.35;;
29984;SDS011;17387;42.690;23.328;2023-04-19T09:54:10;4.22;;;3.10;;
29984;SDS011;17387;42.690;23.328;2023-04-19T09:56:36;3.42;;;2.92;;
29984;SDS011;17387;42.690;23.328;2023-04-19T09:59:02;5.82;;;3.50;;
29984;SDS011;17387;42.690;23.328;2023-04-19T10:01:27;4.53;;;2.63;;
29984;SDS011;17387;42.690;23.328;2023-04-19T10:03:53;3.33;;;2.90;;
29984;SDS011;17387;42.690;23.328;2023-04-19T10:06:19;5.13;;;3.40;;
29984;SDS011;17387;42.690;23.328;2023-04-19T10:08:44;5.40;;;2.97;;
29984;SDS011;17387;42.690;23.328;2023-04-19T10:11:10;6.07;;;3.05;;
29984;SDS011;17387;42.690;23.328;2023-04-19T10:13:36;5.35;;;3.00;;
29984;SDS011;17387;42.690;23.328;2023-04-19T10:16:02;6.25;;;3.47;;
29984;SDS011;17387;42.690;23.328;2023-04-19T10:18:27;4.78;;;3.13;;
29984;SDS011;17387;42.690;23.328;2023-04-19T10:21:00;5.22;;;3.53;;
29984;SDS011;17387;42.690;23.328;2023-04-19T10:23:27;6.70;;;2.97;;
29984;SDS011;17387;42.690;23.328;2023-04-19T10:25:56;5.35;;;3.28;;
29984;SDS011;17387;42.690;23.328;2023-04-19T10:28:22;6.78;;;3.80;;
29984;SDS011;17387;42.690;23.328;2023-04-19T10:33:26;3.78;;;2.80;;
29984;SDS011;17387;42.690;23.328;2023-04-19T10:35:54;3.90;;;2.55;;
29984;SDS011;17387;42.690;23.328;2023-04-19T10:38:20;5.88;;;2.65;;
29984;SDS011;17387;42.690;23.328;2023-04-19T10:43:20;4.70;;;2.58;;
29984;SDS011;17387;42.690;23.328;2023-04-19T10:45:49;5.55;;;3.95;;
29984;SDS011;17387;42.690;23.328;2023-04-19T11:04:20;3.58;;;2.97;;
29984;SDS011;17387;42.690;23.328;2023-04-19T11:09:25;3.15;;;2.83;;
29984;SDS011;17387;42.690;23.328;2023-04-19T11:11:56;4.65;;;2.80;;
29984;SDS011;17387;42.690;23.328;2023-04-19T11:19:32;4.97;;;2.92;;
29984;SDS011;17387;42.690;23.328;2023-04-19T11:21:58;4.85;;;2.97;;
29984;SDS011;17387;42.690;23.328;2023-04-19T11:24:23;3.40;;;2.90;;
29984;SDS011;17387;42.690;23.328;2023-04-19T11:26:49;4.65;;;3.30;;
29984;SDS011;17387;42.690;23.328;2023-04-19T11:29:14;3.08;;;2.40;;
29984;SDS011;17387;42.690;23.328;2023-04-19T11:31:42;5.22;;;3.03;;
29984;SDS011;17387;42.690;23.328;2023-04-19T11:34:07;4.00;;;3.10;;
29984;SDS011;17387;42.690;23.328;2023-04-19T11:36:33;5.67;;;3.17;;
29984;SDS011;17387;42.690;23.328;2023-04-19T11:39:01;3.38;;;2.95;;
29984;SDS011;17387;42.690;23.328;2023-04-19T11:41:26;5.63;;;3.10;;
29984;SDS011;17387;42.690;23.328;2023-04-19T11:43:51;4.38;;;2.72;;
29984;SDS011;17387;42.690;23.328;2023-04-19T11:46:17;3.67;;;2.22;;
29984;SDS011;17387;42.690;23.328;2023-04-19T11:48:49;3.70;;;2.50;;
29984;SDS011;17387;42.690;23.328;2023-04-19T11:51:15;3.90;;;2.50;;
29984;SDS011;17387;42.690;23.328;2023-04-19T11:53:40;4.03;;;2.10;;
29984;SDS011;17387;42.690;23.328;2023-04-19T11:56:06;2.55;;;1.95;;
29984;SDS011;17387;42.690;23.328;2023-04-19T11:58:32;2.50;;;2.30;;
29984;SDS011;17387;42.690;23.328;2023-04-19T12:01:10;5.32;;;2.80;;
29984;SDS011;17387;42.690;23.328;2023-04-19T12:06:09;3.65;;;2.35;;
29984;SDS011;17387;42.690;23.328;2023-04-19T12:08:35;2.75;;;2.00;;
29984;SDS011;17387;42.690;23.328;2023-04-19T12:11:01;2.38;;;2.03;;
29984;SDS011;17387;42.690;23.328;2023-04-19T12:13:27;3.70;;;2.42;;
29984;SDS011;17387;42.690;23.328;2023-04-19T12:15:52;4.35;;;2.35;;
29984;SDS011;17387;42.690;23.328;2023-04-19T12:18:18;4.47;;;2.70;;
29984;SDS011;17387;42.690;23.328;2023-04-19T12:20:46;3.90;;;2.92;;
29984;SDS011;17387;42.690;23.328;2023-04-19T12:23:15;4.97;;;2.83;;
29984;SDS011;17387;42.690;23.328;2023-04-19T12:25:41;3.20;;;2.00;;
29984;SDS011;17387;42.690;23.328;2023-04-19T12:28:07;5.03;;;2.70;;
29984;SDS011;17387;42.690;23.328;2023-04-19T12:30:33;4.25;;;2.25;;
29984;SDS011;17387;42.690;23.328;2023-04-19T12:32:59;4.10;;;2.47;;
29984;SDS011;17387;42.690;23.328;2023-04-19T12:35:25;3.05;;;2.22;;
29984;SDS011;17387;42.690;23.328;2023-04-19T12:37:51;3.92;;;3.00;;
29984;SDS011;17387;42.690;23.328;2023-04-19T12:40:17;5.72;;;3.60;;
29984;SDS011;17387;42.690;23.328;2023-04-19T12:42:42;5.32;;;2.90;;
29984;SDS011;17387;42.690;23.328;2023-04-19T12:45:08;4.47;;;2.90;;
29984;SDS011;17387;42.690;23.328;2023-04-19T12:47:33;4.40;;;3.15;;
29984;SDS011;17387;42.690;23.328;2023-04-19T12:49:59;7.22;;;4.40;;
29984;SDS011;17387;42.690;23.328;2023-04-19T12:52:25;7.95;;;4.80;;
29984;SDS011;17387;42.690;23.328;2023-04-19T12:54:50;9.00;;;6.03;;
29984;SDS011;17387;42.690;23.328;2023-04-19T12:57:16;8.20;;;6.40;;
29984;SDS011;17387;42.690;23.328;2023-04-19T12:59:41;8.10;;;5.28;;
29984;SDS011;17387;42.690;23.328;2023-04-19T13:02:06;4.97;;;4.05;;
29984;SDS011;17387;42.690;23.328;2023-04-19T13:04:32;3.50;;;2.60;;
29984;SDS011;17387;42.690;23.328;2023-04-19T13:06:57;3.58;;;1.90;;
29984;SDS011;17387;42.690;23.328;2023-04-19T13:09:22;4.10;;;2.20;;
29984;SDS011;17387;42.690;23.328;2023-04-19T13:11:48;2.42;;;1.83;;
29984;SDS011;17387;42.690;23.328;2023-04-19T13:14:13;3.50;;;2.25;;
29984;SDS011;17387;42.690;23.328;2023-04-19T13:16:38;4.80;;;2.28;;
29984;SDS011;17387;42.690;23.328;2023-04-19T13:19:04;4.37;;;2.70;;
29984;SDS011;17387;42.690;23.328;2023-04-19T13:21:29;4.60;;;2.40;;
29984;SDS011;17387;42.690;23.328;2023-04-19T13:23:56;6.07;;;2.90;;
29984;SDS011;17387;42.690;23.328;2023-04-19T13:26:21;3.55;;;2.40;;
29984;SDS011;17387;42.690;23.328;2023-04-19T13:28:47;4.70;;;2.70;;
29984;SDS011;17387;42.690;23.328;2023-04-19T13:31:13;2.28;;;2.05;;
29984;SDS011;17387;42.690;23.328;2023-04-19T13:33:38;3.70;;;2.80;;
29984;SDS011;17387;42.690;23.328;2023-04-19T13:36:03;4.80;;;2.75;;
29984;SDS011;17387;42.690;23.328;2023-04-19T13:38:29;3.65;;;2.08;;
29984;SDS011;17387;42.690;23.328;2023-04-19T13:40:54;5.25;;;2.88;;
29984;SDS011;17387;42.690;23.328;2023-04-19T13:43:20;4.32;;;2.20;;
29984;SDS011;17387;42.690;23.328;2023-04-19T13:45:45;4.85;;;2.70;;
29984;SDS011;17387;42.690;23.328;2023-04-19T13:48:16;4.45;;;2.60;;
29984;SDS011;17387;42.690;23.328;2023-04-19T13:50:41;4.38;;;3.05;;
29984;SDS011;17387;42.690;23.328;2023-04-19T13:53:07;4.78;;;2.97;;
29984;SDS011;17387;42.690;23.328;2023-04-19T13:55:32;3.83;;;2.67;;
29984;SDS011;17387;42.690;23.328;2023-04-19T13:57:57;4.32;;;2.63;;
29984;SDS011;17387;42.690;23.328;2023-04-19T14:00:23;7.05;;;3.30;;
29984;SDS011;17387;42.690;23.328;2023-04-19T14:02:48;5.00;;;3.35;;
29984;SDS011;17387;42.690;23.328;2023-04-19T14:05:14;7.53;;;4.60;;
29984;SDS011;17387;42.690;23.328;2023-04-19T14:07:39;3.95;;;2.88;;
29984;SDS011;17387;42.690;23.328;2023-04-19T14:10:05;4.95;;;3.42;;
29984;SDS011;17387;42.690;23.328;2023-04-19T14:12:31;33.55;;;18.83;;
29984;SDS011;17387;42.690;23.328;2023-04-19T14:14:56;51.13;;;22.42;;
29984;SDS011;17387;42.690;23.328;2023-04-19T14:17:21;42.30;;;20.70;;
29984;SDS011;17387;42.690;23.328;2023-04-19T14:19:47;12.52;;;5.63;;
29984;SDS011;17387;42.690;23.328;2023-04-19T14:22:12;10.77;;;4.95;;
29984;SDS011;17387;42.690;23.328;2023-04-19T14:24:37;4.55;;;3.33;;
29984;SDS011;17387;42.690;23.328;2023-04-19T14:27:03;7.00;;;3.63;;
29984;SDS011;17387;42.690;23.328;2023-04-19T14:29:28;7.85;;;3.95;;
29984;SDS011;17387;42.690;23.328;2023-04-19T14:31:53;9.38;;;5.65;;
29984;SDS011;17387;42.690;23.328;2023-04-19T14:34:18;7.13;;;3.60;;
29984;SDS011;17387;42.690;23.328;2023-04-19T14:36:43;10.77;;;4.47;;
29984;SDS011;17387;42.690;23.328;2023-04-19T14:39:09;24.70;;;13.50;;
29984;SDS011;17387;42.690;23.328;2023-04-19T14:41:34;22.77;;;12.43;;
29984;SDS011;17387;42.690;23.328;2023-04-19T14:43:59;4.78;;;3.00;;
29984;SDS011;17387;42.690;23.328;2023-04-19T14:46:25;7.75;;;3.20;;
29984;SDS011;17387;42.690;23.328;2023-04-19T14:48:50;4.75;;;2.67;;
29984;SDS011;17387;42.690;23.328;2023-04-19T14:51:16;5.63;;;4.00;;
29984;SDS011;17387;42.690;23.328;2023-04-19T14:53:41;5.55;;;3.17;;
29984;SDS011;17387;42.690;23.328;2023-04-19T14:56:06;4.90;;;3.35;;
29984;SDS011;17387;42.690;23.328;2023-04-19T14:58:32;7.93;;;4.05;;